METAR AND TAF INFORMATION
METAR FOR PANI
ADDS - METARS form results

(1851 UTC 24 February 2020)
Data provider http://aviationweather.gov/metar/data/
 
METAR text: PANI 241756Z AUTO 00000KT 10SM CLR M28/M31 A3046 RMK AO2 SLP321 T12781306 11211 21283 56001 FZRANO
Conditions at: PANI (ANIAK , AK, US) observed 1756 UTC 24 February 2020
Temperature: -27.8°C (-18°F)
Dewpoint: -30.6°C (-23°F) [RH = 77%]
Pressure (altimeter): 30.46 inches Hg (1031.6 mb)
[Sea-level pressure: 1032.1 mb]
Winds: calm
Visibility: 10 or more miles (16+ km)
Ceiling: at least 12,000 feet AGL
Clouds: sky clear below 12,000 feet AGL
Weather: automated observation with no human augmentation;
there may or may not be significant weather present at this time

 AIRPORT MAP

 RUNWAY INFORMATION
Runway 05W Runway length 3000 ft Runway width 400 ft
Runway elevation 0 ft Runway displaced threshold 0 ft Runway heading 0
Runway 23W Runway length 3000 ft Runway width 400 ft
Runway elevation 0 ft Runway displaced threshold 0 ft Runway heading 0
Runway 10 Runway length 6000 ft Runway width 150 ft
Runway elevation 88 ft Runway displaced threshold 0 ft Runway heading 121
Runway 28 Runway length 6000 ft Runway width 150 ft
Runway elevation 88 ft Runway displaced threshold 0 ft Runway heading 301

 AIRPORT FREQUENCIES

 AIRPORT NEAR NAVIGATION AIDS
Type NDB Name Aniak Frequency 359 KHZ



We are a FlightSim virtual group and are in no way affiliated with RavnAir Group.

Powered by Virtual Airlines Manager [v2.6.2]